Time;durP1;ratioP1;P1;durP2;ratioP2;P2;SDS_P1;SDS_P2;PMS_P1;PMS_P2;Temp;Humidity;BMP_temperature;BMP_pressure;BME280_temperature;BME280_humidity;BME280_pressure;Samples;Min_cycle;Max_cycle;Signal;HPM_P1;HPM_P2
2022/09/07 00:01:14;;;;;;;2.33;1.37;;;26.50;45.80;;;;;;4875608;29;20467;-50
2022/09/07 00:03:43;;;;;;;1.47;1.20;;;26.50;45.80;;;;;;4887226;29;21070;-51
2022/09/07 00:06:13;;;;;;;3.40;1.30;;;26.50;45.50;;;;;;4891114;29;20951;-50
2022/09/07 00:08:43;;;;;;;2.87;1.30;;;26.50;45.60;;;;;;4888308;29;20967;-50
2022/09/07 00:11:14;;;;;;;1.37;1.27;;;26.50;45.70;;;;;;4872694;29;20447;-51
2022/09/07 00:13:44;;;;;;;1.33;1.23;;;26.60;45.90;;;;;;4849038;29;20467;-50
2022/09/07 00:16:18;;;;;;;1.23;0.90;;;26.50;45.60;;;;;;4889142;29;20470;-52
2022/09/07 00:18:47;;;;;;;1.53;1.17;;;26.50;45.40;;;;;;4861075;29;20461;-52
2022/09/07 00:21:17;;;;;;;2.53;1.10;;;26.50;45.80;;;;;;4855990;29;20472;-52
2022/09/07 00:23:49;;;;;;;1.30;1.20;;;26.50;45.70;;;;;;4887057;29;20559;-51
2022/09/07 00:26:20;;;;;;;2.00;1.40;;;26.50;45.60;;;;;;4875400;29;20550;-51
2022/09/07 00:28:49;;;;;;;2.43;1.50;;;26.50;45.60;;;;;;4875001;29;20545;-52
2022/09/07 00:31:19;;;;;;;3.60;1.43;;;26.50;45.70;;;;;;4882900;29;20458;-51
2022/09/07 00:33:49;;;;;;;3.10;1.63;;;26.50;45.60;;;;;;4882353;29;20472;-53
2022/09/07 00:36:18;;;;;;;2.37;1.00;;;26.50;45.60;;;;;;4869785;29;20474;-51
2022/09/07 00:38:49;;;;;;;3.43;1.23;;;26.50;45.50;;;;;;4891670;29;20453;-51
2022/09/07 00:41:19;;;;;;;2.37;1.10;;;26.50;45.40;;;;;;4881492;29;20490;-51
2022/09/07 00:43:49;;;;;;;1.93;1.20;;;26.50;45.40;;;;;;4864671;29;20546;-51
2022/09/07 00:46:19;;;;;;;1.97;1.20;;;26.50;45.40;;;;;;4876643;29;20813;-51
2022/09/07 00:48:55;;;;;;;2.30;1.10;;;26.50;45.60;;;;;;4882768;29;20487;-51
2022/09/07 00:51:28;;;;;;;2.27;1.10;;;26.50;45.50;;;;;;4884713;29;20454;-51
2022/09/07 00:54:01;;;;;;;1.73;0.90;;;26.50;45.40;;;;;;4883191;29;20482;-52
2022/09/07 00:56:33;;;;;;;1.30;1.20;;;26.50;45.50;;;;;;4886661;29;21021;-51
2022/09/07 00:59:02;;;;;;;1.60;1.50;;;26.50;45.40;;;;;;4889699;29;20971;-51
2022/09/07 01:01:32;;;;;;;2.20;1.30;;;26.50;45.40;;;;;;4875442;29;20471;-54
2022/09/07 01:04:02;;;;;;;2.67;1.23;;;26.50;45.50;;;;;;4871292;29;20451;-54
2022/09/07 01:06:34;;;;;;;1.93;0.90;;;26.50;45.50;;;;;;4886991;29;20450;-54
2022/09/07 01:09:09;;;;;;;2.10;1.20;;;26.50;45.40;;;;;;4876409;29;20967;-51
2022/09/07 01:11:39;;;;;;;1.17;1.00;;;26.50;45.40;;;;;;4867216;29;20583;-52
2022/09/07 01:14:11;;;;;;;2.10;1.37;;;26.50;45.50;;;;;;4890265;29;20470;-51
2022/09/07 01:16:54;;;;;;;1.07;0.93;;;26.50;45.50;;;;;;4873216;29;20993;-52
2022/09/07 01:19:57;;;;;;;1.50;1.33;;;26.50;45.60;;;;;;4862446;29;20506;-51
2022/09/07 01:22:48;;;;;;;1.50;1.00;;;26.50;45.40;;;;;;4878395;29;20467;-52
2022/09/07 01:25:29;;;;;;;4.70;1.27;;;26.40;45.60;;;;;;4875848;29;21008;-53
2022/09/07 01:28:06;;;;;;;2.20;1.10;;;26.40;45.50;;;;;;4892625;29;20827;-51
2022/09/07 01:30:37;;;;;;;1.83;1.17;;;26.40;45.70;;;;;;4888074;29;20445;-53
2022/09/07 01:33:21;;;;;;;2.23;1.50;;;26.40;45.60;;;;;;4877485;29;21012;-53
2022/09/07 01:36:01;;;;;;;1.13;1.03;;;26.40;45.90;;;;;;4864835;29;20443;-52
2022/09/07 01:38:35;;;;;;;1.13;1.00;;;26.40;45.70;;;;;;4882308;29;20561;-52
2022/09/07 01:41:09;;;;;;;3.00;1.10;;;26.40;45.70;;;;;;4882948;29;20537;-52
2022/09/07 01:43:44;;;;;;;1.07;1.00;;;26.40;45.70;;;;;;4877610;29;20537;-52
2022/09/07 01:46:18;;;;;;;1.33;1.20;;;26.40;45.80;;;;;;4874698;29;20469;-52
2022/09/07 01:48:51;;;;;;;1.50;1.00;;;26.40;45.80;;;;;;4873293;29;20451;-53
2022/09/07 01:51:22;;;;;;;1.70;1.47;;;26.40;45.90;;;;;;4868447;29;20499;-56
2022/09/07 01:53:54;;;;;;;1.90;1.10;;;26.40;45.80;;;;;;4867121;29;20459;-51
2022/09/07 01:56:27;;;;;;;1.23;0.77;;;26.40;45.70;;;;;;4877050;29;20458;-51
2022/09/07 01:59:02;;;;;;;1.00;0.80;;;26.40;45.60;;;;;;4886115;29;20477;-51
2022/09/07 02:01:33;;;;;;;2.30;0.83;;;26.40;45.70;;;;;;4943283;23;20542;-72
2022/09/07 02:04:07;;;;;;;1.50;1.30;;;26.40;45.80;;;;;;4905521;29;20469;-72
2022/09/07 02:06:42;;;;;;;5.23;1.30;;;26.40;45.90;;;;;;4913152;29;20864;-73
2022/09/07 02:09:18;;;;;;;1.07;0.97;;;26.40;45.90;;;;;;4895606;29;20457;-72
2022/09/07 02:11:48;;;;;;;1.73;0.90;;;26.40;45.90;;;;;;4894457;29;20461;-73
2022/09/07 02:14:22;;;;;;;1.73;1.27;;;26.40;45.90;;;;;;4889076;29;20473;-73
2022/09/07 02:16:56;;;;;;;2.30;1.20;;;26.40;45.80;;;;;;4895601;29;20843;-73
2022/09/07 02:19:28;;;;;;;2.30;0.97;;;26.40;45.90;;;;;;4888514;29;20456;-72
2022/09/07 02:22:00;;;;;;;1.70;1.00;;;26.40;46.20;;;;;;4897647;29;20481;-73
2022/09/07 02:24:34;;;;;;;1.00;0.87;;;26.30;46.20;;;;;;4872559;29;20992;-72
2022/09/07 02:27:05;;;;;;;2.50;0.80;;;26.30;46.20;;;;;;4896925;29;20468;-70
2022/09/07 02:29:35;;;;;;;1.23;1.13;;;26.30;46.10;;;;;;4899568;29;20497;-72
2022/09/07 02:32:03;;;;;;;1.30;1.20;;;26.30;46.10;;;;;;4899242;29;20553;-72
2022/09/07 02:34:33;;;;;;;0.93;0.73;;;26.30;46.30;;;;;;4916072;29;20465;-72
2022/09/07 02:37:04;;;;;;;1.13;0.90;;;26.30;46.30;;;;;;4898661;29;21004;-71
2022/09/07 02:39:33;;;;;;;1.60;1.17;;;26.30;46.40;;;;;;4914598;29;20835;-73
2022/09/07 02:42:02;;;;;;;2.33;1.07;;;26.30;46.30;;;;;;4913584;29;20480;-72
2022/09/07 02:44:35;;;;;;;2.37;1.17;;;26.30;46.30;;;;;;4897674;29;20516;-72
2022/09/07 02:47:20;;;;;;;1.80;1.00;;;26.30;46.20;;;;;;4898515;29;20473;-72
2022/09/07 02:50:09;;;;;;;1.40;1.00;;;26.30;46.30;;;;;;4881290;29;20449;-72
2022/09/07 02:52:47;;;;;;;2.87;1.00;;;26.30;46.30;;;;;;4894024;29;20477;-73
2022/09/07 02:55:27;;;;;;;1.47;0.80;;;26.20;46.30;;;;;;4896737;29;20828;-72
2022/09/07 02:58:09;;;;;;;2.43;1.10;;;26.20;46.40;;;;;;4898223;29;20477;-72
2022/09/07 03:00:44;;;;;;;1.37;1.03;;;26.20;46.40;;;;;;4915074;29;20508;-72
2022/09/07 03:03:22;;;;;;;1.53;1.10;;;26.30;46.30;;;;;;4887372;29;20535;-72
2022/09/07 03:05:54;;;;;;;2.00;1.20;;;26.20;46.30;;;;;;4893993;29;20433;-71
2022/09/07 03:08:26;;;;;;;1.60;0.90;;;26.20;46.30;;;;;;4912835;29;20520;-73
2022/09/07 03:10:55;;;;;;;1.57;1.10;;;26.20;46.30;;;;;;4910005;29;20460;-72
2022/09/07 03:13:26;;;;;;;0.83;0.70;;;26.20;46.40;;;;;;4892258;29;20446;-72
2022/09/07 03:15:56;;;;;;;1.10;0.87;;;26.20;46.40;;;;;;4896607;29;20916;-72
2022/09/07 03:18:26;;;;;;;1.50;1.30;;;26.20;46.30;;;;;;4912230;29;20449;-72
2022/09/07 03:20:55;;;;;;;1.67;1.20;;;26.20;46.30;;;;;;4911147;29;20507;-73
2022/09/07 03:23:23;;;;;;;1.53;0.93;;;26.20;46.50;;;;;;4912943;29;20542;-72
2022/09/07 03:25:53;;;;;;;1.47;0.87;;;26.20;46.40;;;;;;4911638;29;20457;-73
2022/09/07 03:28:24;;;;;;;2.03;1.17;;;26.20;46.40;;;;;;4912751;29;20441;-72
2022/09/07 03:30:52;;;;;;;2.43;1.10;;;26.20;47.70;;;;;;4893320;29;20853;-72
2022/09/07 03:33:22;;;;;;;2.63;1.20;;;26.20;46.40;;;;;;4911798;29;20970;-73
2022/09/07 03:35:58;;;;;;;1.53;1.13;;;26.20;46.50;;;;;;4894323;29;20556;-72
2022/09/07 03:38:27;;;;;;;1.13;1.03;;;26.10;46.50;;;;;;4896402;29;20847;-73
2022/09/07 03:41:00;;;;;;;1.33;1.07;;;26.10;46.40;;;;;;4894520;29;20453;-72
2022/09/07 03:43:32;;;;;;;0.90;0.80;;;26.10;46.40;;;;;;4895818;29;20465;-73
2022/09/07 03:46:01;;;;;;;1.57;1.47;;;26.10;46.40;;;;;;4911584;29;20452;-72
2022/09/07 03:48:32;;;;;;;1.80;0.90;;;26.10;46.40;;;;;;4890655;29;20453;-72
2022/09/07 03:51:02;;;;;;;1.63;0.83;;;26.10;46.50;;;;;;4887849;29;20456;-72
2022/09/07 03:53:35;;;;;;;1.97;0.80;;;26.10;46.50;;;;;;4895587;29;20461;-72
2022/09/07 03:56:06;;;;;;;1.30;1.20;;;26.10;46.50;;;;;;4894367;29;20890;-72
2022/09/07 03:58:36;;;;;;;1.80;1.20;;;26.10;46.50;;;;;;4895139;29;20508;-73
2022/09/07 04:01:06;;;;;;;1.67;1.23;;;26.10;46.40;;;;;;4918367;29;20500;-72
2022/09/07 04:03:36;;;;;;;0.80;0.80;;;26.10;46.50;;;;;;4906991;29;20859;-72
2022/09/07 04:06:05;;;;;;;1.20;0.93;;;26.10;46.40;;;;;;4911218;29;20512;-71
2022/09/07 04:08:35;;;;;;;1.40;0.73;;;26.10;46.60;;;;;;4911895;29;20441;-72
2022/09/07 04:11:05;;;;;;;2.13;1.47;;;26.10;46.50;;;;;;4894365;29;20508;-73
2022/09/07 04:13:36;;;;;;;1.83;0.90;;;26.00;46.60;;;;;;4895307;29;20553;-72
2022/09/07 04:16:10;;;;;;;2.97;1.03;;;26.10;46.50;;;;;;4912158;29;20445;-72
2022/09/07 04:18:40;;;;;;;1.33;1.10;;;26.10;46.50;;;;;;4895578;29;20488;-72
2022/09/07 04:21:09;;;;;;;1.60;1.00;;;26.10;46.60;;;;;;4890718;29;20532;-72
2022/09/07 04:23:39;;;;;;;1.90;0.90;;;26.00;46.50;;;;;;4910583;29;20481;-71
2022/09/07 04:26:13;;;;;;;1.50;1.30;;;26.00;46.40;;;;;;4893100;29;20453;-72
2022/09/07 04:28:41;;;;;;;1.07;0.97;;;26.00;46.50;;;;;;4895557;29;20433;-70
2022/09/07 04:31:10;;;;;;;1.40;0.90;;;26.00;46.40;;;;;;4895089;29;20457;-73
2022/09/07 04:33:40;;;;;;;2.00;1.17;;;26.00;46.50;;;;;;4894630;29;20472;-73
2022/09/07 04:36:09;;;;;;;1.93;1.23;;;26.00;46.60;;;;;;4889048;29;20465;-72
2022/09/07 04:38:38;;;;;;;1.07;0.80;;;26.00;46.40;;;;;;4895461;29;20433;-71
2022/09/07 04:41:09;;;;;;;2.00;1.00;;;26.00;46.50;;;;;;4893340;29;21013;-72
2022/09/07 04:43:38;;;;;;;1.33;1.10;;;26.00;46.70;;;;;;4909721;29;20894;-73
2022/09/07 04:46:10;;;;;;;1.90;1.30;;;26.00;46.60;;;;;;4915205;29;20456;-73
2022/09/07 04:48:39;;;;;;;0.87;0.83;;;26.00;46.60;;;;;;4906881;29;20463;-73
2022/09/07 04:51:10;;;;;;;1.20;0.80;;;26.00;46.50;;;;;;4910378;29;20449;-72
2022/09/07 04:53:38;;;;;;;2.10;0.93;;;25.90;46.40;;;;;;4898159;29;20915;-71
2022/09/07 04:56:07;;;;;;;1.20;1.10;;;25.90;46.50;;;;;;4892287;29;20883;-73
2022/09/07 04:58:36;;;;;;;1.77;1.40;;;25.90;46.40;;;;;;4895137;29;20843;-72
2022/09/07 05:01:06;;;;;;;2.13;1.23;;;25.90;46.40;;;;;;4894638;29;20461;-72
2022/09/07 05:03:37;;;;;;;3.70;1.23;;;25.90;46.40;;;;;;4910145;29;20477;-73
2022/09/07 05:06:08;;;;;;;1.10;0.73;;;25.90;46.50;;;;;;4894288;29;20478;-73
2022/09/07 05:08:37;;;;;;;2.20;1.00;;;25.90;46.50;;;;;;4894854;29;20442;-72
2022/09/07 05:11:06;;;;;;;1.27;1.00;;;25.90;46.40;;;;;;4889479;29;20508;-72
2022/09/07 05:13:35;;;;;;;2.47;1.17;;;25.90;46.50;;;;;;4889785;29;20461;-72
2022/09/07 05:16:08;;;;;;;3.17;0.83;;;25.90;46.70;;;;;;4902758;29;20437;-72
2022/09/07 05:18:37;;;;;;;2.90;1.30;;;25.90;46.50;;;;;;4893952;29;20461;-72
2022/09/07 05:21:11;;;;;;;0.80;0.77;;;25.90;46.60;;;;;;4893096;29;20433;-73
2022/09/07 05:23:40;;;;;;;1.93;0.83;;;25.90;46.60;;;;;;4894168;29;20536;-73
2022/09/07 05:26:09;;;;;;;2.10;0.90;;;25.90;46.50;;;;;;4893181;29;20456;-73
2022/09/07 05:28:37;;;;;;;1.00;0.90;;;25.90;47.90;;;;;;4894750;29;20957;-71
2022/09/07 05:31:08;;;;;;;1.90;1.00;;;25.90;46.70;;;;;;4893777;29;20514;-72
2022/09/07 05:33:46;;;;;;;1.27;0.90;;;25.80;46.60;;;;;;4892622;29;20564;-73
2022/09/07 05:36:36;;;;;;;2.50;1.33;;;25.80;46.60;;;;;;4905308;29;20953;-72
2022/09/07 05:39:06;;;;;;;4.10;0.93;;;25.80;46.70;;;;;;4893988;29;20806;-72
2022/09/07 05:41:35;;;;;;;1.20;0.80;;;25.80;46.70;;;;;;4892374;29;20532;-73
2022/09/07 05:44:04;;;;;;;2.20;1.00;;;25.90;46.80;;;;;;4893041;29;20520;-73
2022/09/07 05:46:52;;;;;;;1.57;0.93;;;25.80;46.60;;;;;;4894114;29;20457;-72
2022/09/07 05:49:21;;;;;;;1.03;0.93;;;25.80;46.50;;;;;;4901821;29;20473;-72
2022/09/07 05:51:50;;;;;;;2.10;0.70;;;25.80;46.50;;;;;;4879284;29;20466;-73
2022/09/07 05:54:19;;;;;;;1.17;0.80;;;25.80;46.50;;;;;;4912258;29;20468;-72
2022/09/07 05:56:47;;;;;;;1.70;1.00;;;25.80;46.50;;;;;;4895986;29;20505;-73
2022/09/07 05:59:15;;;;;;;1.97;1.40;;;25.80;46.60;;;;;;4890780;29;20855;-72
2022/09/07 06:01:44;;;;;;;2.27;0.93;;;25.80;46.60;;;;;;4905060;29;20487;-72
2022/09/07 06:04:12;;;;;;;1.83;0.87;;;25.80;46.60;;;;;;4913011;29;20548;-73
2022/09/07 06:06:40;;;;;;;2.20;1.00;;;25.80;46.50;;;;;;4885294;29;21631;-72
2022/09/07 06:09:16;;;;;;;2.50;1.37;;;25.80;46.50;;;;;;4901395;29;20561;-73
2022/09/07 06:11:44;;;;;;;1.53;0.83;;;25.70;46.60;;;;;;4896670;29;20453;-72
2022/09/07 06:14:13;;;;;;;1.83;1.20;;;25.70;46.70;;;;;;4896625;29;20538;-72
2022/09/07 06:16:42;;;;;;;2.83;1.00;;;25.70;46.60;;;;;;4897164;29;20446;-72
2022/09/07 06:19:11;;;;;;;1.43;0.90;;;25.80;46.70;;;;;;4896328;29;20965;-72
2022/09/07 06:21:40;;;;;;;1.13;0.80;;;25.70;46.70;;;;;;4912593;29;20488;-71
2022/09/07 06:24:08;;;;;;;1.00;0.90;;;25.70;46.60;;;;;;4896830;29;20548;-72
2022/09/07 06:26:38;;;;;;;1.47;0.90;;;25.70;46.70;;;;;;4896164;29;20453;-72
2022/09/07 06:29:06;;;;;;;1.40;1.00;;;25.70;46.70;;;;;;4904523;29;20500;-73
2022/09/07 06:31:35;;;;;;;1.50;1.00;;;25.70;46.80;;;;;;4896617;29;20603;-72
2022/09/07 06:34:24;;;;;;;0.83;0.80;;;25.70;46.60;;;;;;4889943;29;20572;-72
2022/09/07 06:36:52;;;;;;;0.90;0.80;;;25.70;46.70;;;;;;4896061;29;20457;-72
2022/09/07 06:39:20;;;;;;;1.57;1.00;;;25.70;46.70;;;;;;4913775;29;20515;-73
2022/09/07 06:41:50;;;;;;;3.33;1.17;;;25.70;47.00;;;;;;4916727;29;21008;-72
2022/09/07 06:44:30;;;;;;;1.40;1.20;;;25.70;47.20;;;;;;4896573;29;20894;-72
2022/09/07 06:46:58;;;;;;;1.67;1.07;;;25.70;47.30;;;;;;4912313;29;20488;-72
2022/09/07 06:49:26;;;;;;;1.40;1.00;;;25.70;47.30;;;;;;4896536;29;20461;-73
2022/09/07 06:51:55;;;;;;;2.60;1.10;;;25.70;47.30;;;;;;4896327;29;20516;-72
2022/09/07 06:54:23;;;;;;;1.43;1.00;;;25.70;47.60;;;;;;4879808;29;20456;-72
2022/09/07 06:57:13;;;;;;;1.60;1.30;;;25.70;47.30;;;;;;4894461;29;20509;-73
2022/09/07 06:59:41;;;;;;;3.03;1.40;;;25.70;47.40;;;;;;4896684;29;20477;-67
2022/09/07 07:02:13;;;;;;;1.10;1.00;;;25.70;47.70;;;;;;4896043;29;20454;-67
2022/09/07 07:04:42;;;;;;;2.00;1.33;;;25.70;47.90;;;;;;4894197;29;20580;-67
2022/09/07 07:07:11;;;;;;;1.63;0.97;;;25.70;48.20;;;;;;4896231;29;21024;-67
2022/09/07 07:09:41;;;;;;;2.10;1.27;;;25.70;48.10;;;;;;4894847;29;20445;-67
2022/09/07 07:12:10;;;;;;;3.63;0.87;;;25.70;48.20;;;;;;4894024;29;20906;-67
2022/09/07 07:14:39;;;;;;;1.40;1.13;;;25.70;48.20;;;;;;4897773;29;20484;-68
2022/09/07 07:17:12;;;;;;;1.87;1.10;;;25.60;48.00;;;;;;4913123;29;20549;-66
2022/09/07 07:19:40;;;;;;;2.30;0.90;;;25.70;48.20;;;;;;4911374;29;20448;-68
2022/09/07 07:22:09;;;;;;;1.37;1.20;;;25.70;48.00;;;;;;4894112;29;20996;-68
2022/09/07 07:24:57;;;;;;;1.30;1.10;;;25.70;48.00;;;;;;4891312;29;20481;-65
2022/09/07 07:27:26;;;;;;;3.90;1.50;;;25.60;48.10;;;;;;4895721;29;20488;-67
2022/09/07 07:29:56;;;;;;;1.40;1.20;;;25.70;48.20;;;;;;4895651;29;20544;-68
2022/09/07 07:32:24;;;;;;;1.30;0.83;;;25.60;48.40;;;;;;4898929;29;20500;-66
2022/09/07 07:34:52;;;;;;;1.43;1.10;;;25.60;48.40;;;;;;4893106;29;20465;-67
2022/09/07 07:37:21;;;;;;;1.73;1.00;;;25.60;48.20;;;;;;4896374;29;20548;-67
2022/09/07 07:39:55;;;;;;;1.23;1.00;;;25.60;48.30;;;;;;4896498;29;20433;-67
2022/09/07 07:42:44;;;;;;;2.23;1.30;;;25.50;48.30;;;;;;4892685;29;20485;-66
2022/09/07 07:45:14;;;;;;;3.10;1.20;;;25.50;48.50;;;;;;4896565;29;20520;-66
2022/09/07 07:48:03;;;;;;;1.47;0.90;;;25.50;48.60;;;;;;4908623;29;20477;-66
2022/09/07 07:50:31;;;;;;;1.30;1.17;;;25.50;48.60;;;;;;4911116;29;20450;-67
2022/09/07 07:53:01;;;;;;;1.30;1.07;;;25.50;48.80;;;;;;4889189;29;20465;-65
2022/09/07 07:55:49;;;;;;;1.57;0.87;;;25.50;48.80;;;;;;4893639;29;20540;-66
2022/09/07 07:58:17;;;;;;;1.77;1.27;;;25.50;48.60;;;;;;4878650;29;20540;-66
2022/09/07 08:01:09;;;;;;;3.70;1.30;;;25.50;48.70;;;;;;4878946;29;20894;-67
2022/09/07 08:03:39;;;;;;;2.07;1.10;;;25.50;48.70;;;;;;4910038;29;20517;-68
2022/09/07 08:06:10;;;;;;;3.70;1.40;;;25.50;49.10;;;;;;4894784;29;20454;-69
2022/09/07 08:08:38;;;;;;;2.33;1.37;;;25.50;49.00;;;;;;4911466;29;20441;-69
2022/09/07 08:11:08;;;;;;;1.67;1.10;;;25.50;48.50;;;;;;4893631;29;20446;-69
2022/09/07 08:13:37;;;;;;;2.67;1.03;;;25.50;48.40;;;;;;4894557;29;20458;-69
2022/09/07 08:16:08;;;;;;;1.17;1.07;;;25.50;48.30;;;;;;4895168;29;20467;-68
2022/09/07 08:18:38;;;;;;;1.33;1.10;;;25.50;48.30;;;;;;4898027;29;20943;-69
2022/09/07 08:21:08;;;;;;;1.60;1.30;;;25.40;48.20;;;;;;4912414;29;20457;-68
2022/09/07 08:23:37;;;;;;;1.43;1.27;;;25.50;48.40;;;;;;4910718;29;20461;-69
2022/09/07 08:26:06;;;;;;;1.70;1.00;;;25.50;48.50;;;;;;4894862;29;20438;-68
2022/09/07 08:28:37;;;;;;;1.20;1.10;;;25.50;48.30;;;;;;4898514;29;20536;-68
2022/09/07 08:31:08;;;;;;;1.90;0.90;;;25.50;48.40;;;;;;4911631;29;20489;-69
2022/09/07 08:33:38;;;;;;;1.53;1.20;;;25.50;48.30;;;;;;4912081;29;20462;-68
2022/09/07 08:36:09;;;;;;;1.17;1.07;;;25.40;48.30;;;;;;4898775;29;20841;-69
2022/09/07 08:38:38;;;;;;;1.43;1.10;;;25.40;48.30;;;;;;4911319;29;20877;-69
2022/09/07 08:41:28;;;;;;;1.63;1.07;;;25.40;48.30;;;;;;4894128;29;20540;-69
2022/09/07 08:44:01;;;;;;;1.30;0.80;;;25.50;48.40;;;;;;4909276;29;20563;-68
2022/09/07 08:46:37;;;;;;;1.63;0.83;;;25.40;48.30;;;;;;4911414;29;20483;-69
2022/09/07 08:49:13;;;;;;;1.20;0.90;;;25.40;48.30;;;;;;4917694;29;20448;-69
2022/09/07 08:51:46;;;;;;;1.13;0.90;;;25.40;48.30;;;;;;4911318;29;20795;-69
2022/09/07 08:54:16;;;;;;;1.00;1.00;;;25.50;48.30;;;;;;4910149;29;21066;-69
2022/09/07 08:56:48;;;;;;;1.20;1.10;;;25.40;48.10;;;;;;4878149;29;20473;-69
2022/09/07 08:59:41;;;;;;;1.43;1.00;;;25.50;48.20;;;;;;4895120;29;20437;-69
2022/09/07 09:02:14;;;;;;;1.73;0.83;;;25.50;48.30;;;;;;4909686;29;20473;-69
2022/09/07 09:05:04;;;;;;;1.20;0.80;;;25.50;48.30;;;;;;4893253;29;20485;-69
2022/09/07 09:08:01;;;;;;;1.77;1.00;;;25.40;48.20;;;;;;4911136;29;20850;-69
2022/09/07 09:10:40;;;;;;;1.10;0.90;;;25.50;48.20;;;;;;4911026;29;20453;-69
2022/09/07 09:13:16;;;;;;;1.60;0.90;;;25.50;48.20;;;;;;4908943;29;20567;-69
2022/09/07 09:15:53;;;;;;;0.97;0.80;;;25.50;48.20;;;;;;4910118;29;20483;-68
2022/09/07 09:18:33;;;;;;;1.27;1.07;;;25.50;48.30;;;;;;4905117;29;20499;-68
2022/09/07 09:21:02;;;;;;;1.30;0.83;;;25.40;48.30;;;;;;4895106;29;20815;-68
2022/09/07 09:23:34;;;;;;;1.33;1.00;;;25.40;48.30;;;;;;4894339;29;21004;-68
2022/09/07 09:26:08;;;;;;;1.00;0.80;;;25.40;48.40;;;;;;4909142;29;20477;-68
2022/09/07 09:28:36;;;;;;;1.53;1.30;;;25.40;48.50;;;;;;4913023;29;20540;-68
2022/09/07 09:31:06;;;;;;;0.87;0.70;;;25.40;48.70;;;;;;4913408;29;20449;-68
2022/09/07 09:33:36;;;;;;;0.93;0.70;;;25.50;48.90;;;;;;4914619;29;20473;-68
2022/09/07 09:36:24;;;;;;;1.70;1.10;;;25.40;48.60;;;;;;4921868;29;20979;-68
2022/09/07 09:38:54;;;;;;;1.27;1.13;;;25.40;48.70;;;;;;4898685;29;20444;-68
2022/09/07 09:41:22;;;;;;;1.90;1.17;;;25.40;48.80;;;;;;4896912;29;21381;-69
2022/09/07 09:43:54;;;;;;;1.20;1.10;;;25.40;48.80;;;;;;4913284;29;20461;-68
2022/09/07 09:46:28;;;;;;;2.13;1.23;;;25.40;48.80;;;;;;4903016;29;20468;-68
2022/09/07 09:49:00;;;;;;;1.53;1.07;;;25.40;50.00;;;;;;4918722;29;20456;-68
2022/09/07 09:51:32;;;;;;;2.00;1.03;;;25.40;48.90;;;;;;4897999;29;20465;-68
2022/09/07 09:54:25;;;;;;;1.00;0.90;;;25.40;48.90;;;;;;4909831;29;20555;-68
2022/09/07 09:56:54;;;;;;;1.13;1.03;;;25.40;49.00;;;;;;4906034;29;20440;-68
2022/09/07 09:59:27;;;;;;;1.43;1.13;;;25.40;49.30;;;;;;4915682;29;20446;-68
2022/09/07 10:02:28;;;;;;;1.30;1.20;;;25.40;49.20;;;;;;4897409;29;20548;-68
2022/09/07 10:05:27;;;;;;;1.03;0.90;;;25.40;49.20;;;;;;4896279;29;20568;-68
2022/09/07 10:07:56;;;;;;;1.40;1.30;;;25.40;49.40;;;;;;4897272;29;20472;-68
2022/09/07 10:10:27;;;;;;;2.93;1.17;;;25.40;49.40;;;;;;4914212;29;20463;-68
2022/09/07 10:12:56;;;;;;;1.30;1.10;;;25.40;49.30;;;;;;4912125;29;20887;-69
2022/09/07 10:15:35;;;;;;;1.37;1.07;;;25.40;49.30;;;;;;4897908;29;20465;-68
2022/09/07 10:18:20;;;;;;;1.90;1.33;;;25.40;49.20;;;;;;4904546;29;20461;-69
2022/09/07 10:20:49;;;;;;;0.80;0.80;;;25.40;49.40;;;;;;4896964;29;20844;-69
2022/09/07 10:23:24;;;;;;;1.93;1.43;;;25.40;49.20;;;;;;4919096;29;21168;-68
2022/09/07 10:25:52;;;;;;;2.20;1.10;;;25.40;49.30;;;;;;4894828;29;20480;-69
2022/09/07 10:28:22;;;;;;;1.87;1.73;;;25.40;49.40;;;;;;4914313;29;20568;-68
2022/09/07 10:31:19;;;;;;;1.17;1.07;;;25.40;49.30;;;;;;4914655;29;20561;-68
2022/09/07 10:33:55;;;;;;;1.40;1.13;;;25.40;49.10;;;;;;4918014;29;20461;-68
2022/09/07 10:36:51;;;;;;;2.73;1.37;;;25.40;49.10;;;;;;4909067;29;20475;-68
2022/09/07 10:39:25;;;;;;;4.33;1.10;;;25.40;49.10;;;;;;4911728;29;20449;-68
2022/09/07 10:42:04;;;;;;;2.37;1.53;;;25.40;49.10;;;;;;4911476;29;20449;-68
2022/09/07 10:44:46;;;;;;;2.30;1.43;;;25.40;50.30;;;;;;4902380;29;20461;-68
2022/09/07 10:47:25;;;;;;;1.30;1.20;;;25.40;49.10;;;;;;4909328;29;20629;-68
2022/09/07 10:49:57;;;;;;;1.83;1.10;;;25.40;49.10;;;;;;4911736;29;20441;-68
2022/09/07 10:52:54;;;;;;;2.40;1.43;;;25.40;49.10;;;;;;4898692;29;20572;-68
2022/09/07 10:55:30;;;;;;;1.67;1.40;;;25.40;49.40;;;;;;4906937;29;20476;-68
2022/09/07 10:58:10;;;;;;;2.03;1.37;;;25.40;49.30;;;;;;4911625;29;20505;-68
2022/09/07 11:00:45;;;;;;;1.37;1.27;;;25.40;49.20;;;;;;4896068;29;20525;-68
2022/09/07 11:03:47;;;;;;;1.40;1.10;;;25.40;49.20;;;;;;4911213;29;20528;-69
2022/09/07 11:06:20;;;;;;;2.30;1.40;;;25.40;49.20;;;;;;4909416;29;20900;-68
2022/09/07 11:09:16;;;;;;;1.20;0.90;;;25.40;49.20;;;;;;4881191;29;20430;-68
2022/09/07 11:11:50;;;;;;;1.30;1.20;;;25.40;49.10;;;;;;4909635;29;20465;-68
2022/09/07 11:14:40;;;;;;;1.30;1.20;;;25.40;49.10;;;;;;4898526;29;20938;-69
2022/09/07 11:17:16;;;;;;;1.77;1.20;;;25.30;49.00;;;;;;4918899;28;20549;-68
2022/09/07 11:19:53;;;;;;;2.77;1.40;;;25.40;49.10;;;;;;4912747;29;20444;-68
2022/09/07 11:22:32;;;;;;;2.00;1.13;;;25.30;49.00;;;;;;4911898;29;20465;-68
2022/09/07 11:25:08;;;;;;;1.57;1.10;;;25.40;49.10;;;;;;4911839;29;20480;-68
2022/09/07 11:28:01;;;;;;;1.50;1.30;;;25.30;49.10;;;;;;4894862;29;21075;-68
2022/09/07 11:30:33;;;;;;;2.47;1.20;;;25.30;49.00;;;;;;4895813;29;20442;-68
2022/09/07 11:33:11;;;;;;;1.87;1.30;;;25.30;49.10;;;;;;4910833;29;20461;-68
2022/09/07 11:35:47;;;;;;;3.37;1.20;;;25.30;48.90;;;;;;4914844;29;20445;-68
2022/09/07 11:38:25;;;;;;;2.07;1.30;;;25.30;48.80;;;;;;4910752;29;20508;-68
2022/09/07 11:41:01;;;;;;;2.30;1.03;;;25.30;48.80;;;;;;4910840;29;20445;-69
2022/09/07 11:43:35;;;;;;;1.30;1.20;;;25.30;48.80;;;;;;4910860;29;20469;-68
2022/09/07 11:46:07;;;;;;;2.07;0.93;;;25.30;48.80;;;;;;4896199;29;20512;-68
2022/09/07 11:48:41;;;;;;;1.90;1.53;;;25.30;48.80;;;;;;4912124;29;20466;-68
2022/09/07 11:51:15;;;;;;;2.30;1.30;;;25.30;48.60;;;;;;4895287;29;20449;-68
2022/09/07 11:53:48;;;;;;;2.30;1.17;;;25.30;48.50;;;;;;4895727;29;20457;-68
2022/09/07 11:56:25;;;;;;;1.47;1.30;;;25.30;48.50;;;;;;4895009;29;20453;-69
2022/09/07 11:59:13;;;;;;;1.73;1.30;;;25.30;48.50;;;;;;4914174;29;20476;-68
2022/09/07 12:01:54;;;;;;;1.10;1.00;;;25.30;48.50;;;;;;4896584;29;20880;-68
2022/09/07 12:04:51;;;;;;;1.60;1.13;;;25.30;48.40;;;;;;4892259;29;21016;-68
2022/09/07 12:07:41;;;;;;;1.60;0.93;;;25.40;48.30;;;;;;4904819;29;20473;-69
2022/09/07 12:10:31;;;;;;;1.87;1.20;;;25.30;48.20;;;;;;4911191;29;20449;-69
2022/09/07 12:13:27;;;;;;;1.57;1.10;;;25.30;48.10;;;;;;4913556;29;20516;-68
2022/09/07 12:16:04;;;;;;;1.37;1.10;;;25.40;48.20;;;;;;4912768;29;20437;-68
2022/09/07 12:18:53;;;;;;;2.70;1.10;;;25.30;48.00;;;;;;4895440;29;20461;-68
2022/09/07 12:21:37;;;;;;;1.83;0.70;;;25.40;48.20;;;;;;4909810;29;20449;-68
2022/09/07 12:24:21;;;;;;;1.13;1.03;;;25.40;48.10;;;;;;4908914;29;20477;-68
2022/09/07 12:26:51;;;;;;;2.47;1.13;;;25.30;48.00;;;;;;4907506;29;20484;-68
2022/09/07 12:29:23;;;;;;;1.27;1.17;;;25.40;47.80;;;;;;4894889;29;20433;-68
2022/09/07 12:31:53;;;;;;;1.40;1.00;;;25.40;47.80;;;;;;4910263;29;20868;-69
2022/09/07 12:34:52;;;;;;;2.43;1.00;;;25.30;47.70;;;;;;4909723;29;20492;-68
2022/09/07 12:37:40;;;;;;;3.27;1.17;;;25.30;47.50;;;;;;4894280;29;20496;-68
2022/09/07 12:40:44;;;;;;;1.30;1.20;;;25.40;47.40;;;;;;4909423;29;20472;-68
2022/09/07 12:43:35;;;;;;;1.53;1.10;;;25.40;47.60;;;;;;4893823;29;20540;-68
2022/09/07 12:46:20;;;;;;;2.93;1.10;;;25.40;47.30;;;;;;4897292;29;20478;-71
2022/09/07 12:49:00;;;;;;;1.80;1.07;;;25.40;47.50;;;;;;4895188;29;20437;-68
2022/09/07 12:51:35;;;;;;;2.00;1.30;;;25.40;47.50;;;;;;4909301;29;20477;-68
2022/09/07 12:54:31;;;;;;;1.70;1.10;;;25.40;47.40;;;;;;4904400;29;20472;-70
2022/09/07 12:57:13;;;;;;;1.10;1.00;;;25.40;47.50;;;;;;4910346;29;20471;-72
2022/09/07 13:00:22;;;;;;;2.30;1.00;;;25.40;47.70;;;;;;4904798;29;20425;-71
2022/09/07 13:03:32;;;;;;;3.13;1.47;;;25.40;47.70;;;;;;4913086;29;20483;-68
2022/09/07 13:06:59;;;;;;;3.03;1.03;;;25.40;47.40;;;;;;4897933;29;20468;-68
2022/09/07 13:09:56;;;;;;;3.60;1.53;;;25.40;47.30;;;;;;4896255;29;20586;-68
2022/09/07 13:12:51;;;;;;;1.70;1.10;;;25.40;47.30;;;;;;4910885;29;21121;-68
2022/09/07 13:15:42;;;;;;;1.70;1.10;;;25.40;47.30;;;;;;4916089;29;20435;-71
2022/09/07 13:18:48;;;;;;;1.43;0.70;;;25.40;47.20;;;;;;4911194;29;20560;-71
2022/09/07 13:21:42;;;;;;;2.53;1.07;;;25.40;47.00;;;;;;4915163;29;20436;-71
2022/09/07 13:24:49;;;;;;;0.77;0.77;;;25.40;47.10;;;;;;4914601;29;20933;-71
2022/09/07 13:27:45;;;;;;;1.00;0.87;;;25.40;47.00;;;;;;4911541;29;20535;-71
2022/09/07 13:30:26;;;;;;;1.53;1.23;;;25.40;46.90;;;;;;4910498;29;20540;-71